Map

Track Data

SID SEASON NUMBER BASIN SUBBASIN NAME ISO_TIME NATURE LAT LON WMO_WIND WMO_PRES WMO_AGENCY TRACK_TYPE DIST2LAND LANDFALL IFLAG USA_AGENCY USA_ATCF_ID USA_LAT USA_LON USA_RECORD USA_STATUS USA_WIND USA_PRES USA_SSHS USA_R34_NE USA_R34_SE USA_R34_SW USA_R34_NW USA_R50_NE USA_R50_SE USA_R50_SW USA_R50_NW USA_R64_NE USA_R64_SE USA_R64_SW USA_R64_NW USA_POCI USA_ROCI USA_RMW USA_EYE TOKYO_LAT TOKYO_LON TOKYO_GRADE TOKYO_WIND TOKYO_PRES TOKYO_R50_DIR TOKYO_R50_LONG TOKYO_R50_SHORT TOKYO_R30_DIR TOKYO_R30_LONG TOKYO_R30_SHORT TOKYO_LAND CMA_LAT CMA_LON CMA_CAT CMA_WIND CMA_PRES HKO_LAT HKO_LON HKO_CAT HKO_WIND HKO_PRES NEWDELHI_LAT NEWDELHI_LON NEWDELHI_GRADE NEWDELHI_WIND NEWDELHI_PRES NEWDELHI_CI NEWDELHI_DP NEWDELHI_POCI REUNION_LAT REUNION_LON REUNION_TYPE REUNION_WIND REUNION_PRES REUNION_TNUM REUNION_CI REUNION_RMW REUNION_R34_NE REUNION_R34_SE REUNION_R34_SW REUNION_R34_NW REUNION_R50_NE REUNION_R50_SE REUNION_R50_SW REUNION_R50_NW REUNION_R64_NE REUNION_R64_SE REUNION_R64_SW REUNION_R64_NW BOM_LAT BOM_LON BOM_TYPE BOM_WIND BOM_PRES BOM_TNUM BOM_CI BOM_RMW BOM_R34_NE BOM_R34_SE BOM_R34_SW BOM_R34_NW BOM_R50_NE BOM_R50_SE BOM_R50_SW BOM_R50_NW BOM_R64_NE BOM_R64_SE BOM_R64_SW BOM_R64_NW BOM_ROCI BOM_POCI BOM_EYE BOM_POS_METHOD BOM_PRES_METHOD NADI_LAT NADI_LON NADI_CAT NADI_WIND NADI_PRES WELLINGTON_LAT WELLINGTON_LON WELLINGTON_WIND WELLINGTON_PRES DS824_LAT DS824_LON DS824_STAGE DS824_WIND DS824_PRES TD9636_LAT TD9636_LON TD9636_STAGE TD9636_WIND TD9636_PRES TD9635_LAT TD9635_LON TD9635_WIND TD9635_PRES TD9635_ROCI NEUMANN_LAT NEUMANN_LON NEUMANN_CLASS NEUMANN_WIND NEUMANN_PRES MLC_LAT MLC_LON MLC_CLASS MLC_WIND MLC_PRES USA_GUST BOM_GUST BOM_GUST_PER REUNION_GUST REUNION_GUST_PER USA_SEAHGT USA_SEARAD_NE USA_SEARAD_SE USA_SEARAD_SW USA_SEARAD_NW STORM_SPEED STORM_DIR
1944166N17070 1944 31 NI AS NOT_NAMED 1944-06-14 00:00:00 TS 16.8000 70.2000 main 320 301 _________O____ -1 16.8000 70.2000 TC 30 6 18
1944166N17070 1944 31 NI AS NOT_NAMED 1944-06-14 03:00:00 TS 17.0983 70.2983 main 301 275 _________PO___ -1 17.2475 70.3474 TC 30 16.8000 70.2000 1 8 18
1944166N17070 1944 31 NI AS NOT_NAMED 1944-06-14 06:00:00 TS 17.5219 70.4460 main 275 245 _________OP___ -1 17.7000 70.5000 TC 30 17.2549 70.3649 1 9 18
1944166N17070 1944 31 NI AS NOT_NAMED 1944-06-14 09:00:00 TS 17.9647 70.6004 main 244 228 _________PP___ -1 18.1575 70.6575 TC 30 17.7077 70.5243 1 9 18
1944166N17070 1944 31 NI AS NOT_NAMED 1944-06-14 12:00:00 TS 18.3783 70.7357 main 228 200 _________OP___ -1 18.6000 70.8000 TC 30 18.1567 70.6715 1 9 16
1944166N17070 1944 31 NI AS NOT_NAMED 1944-06-14 15:00:00 TS 18.8037 70.8575 main 200 168 _________PO___ -1 19.0075 70.9151 TC 30 18.6000 70.8000 1 9 14
1944166N17070 1944 31 NI AS NOT_NAMED 1944-06-14 18:00:00 TS 19.2173 70.9525 main 169 124 _________OP___ -1 19.4000 71.0000 TC 30 19.0346 70.9049 1 9 11
1944166N17070 1944 31 NI AS NOT_NAMED 1944-06-14 21:00:00 TS 19.6374 71.0226 main 124 84 _________PP___ -1 19.8225 71.0576 TC 30 19.4524 70.9877 1 8 9
1944166N17070 1944 31 NI AS NOT_NAMED 1944-06-15 00:00:00 TS 20.0220 71.0758 main 84 54 _________OP___ -1 20.2000 71.1000 TC 30 19.8440 71.0517 1 7 8
1944166N17070 1944 31 NI AS NOT_NAMED 1944-06-15 03:00:00 TS 20.3325 71.1288 main 54 24 _________PO___ -1 20.4650 71.1575 TC 30 20.2000 71.1000 1 6 9
1944166N17070 1944 31 NI AS NOT_NAMED 1944-06-15 06:00:00 TS 20.6115 71.1678 main 24 0 _________OP___ -1 20.7000 71.2000 TC 30 20.5231 71.1356 1 6 4
1944166N17070 1944 31 NI AS NOT_NAMED 1944-06-15 09:00:00 TS 20.9087 71.1789 main 0 0 _________PP___ -1 21.0075 71.2001 TC 30 20.8099 71.1578 1 6 1
1944166N17070 1944 31 NI AS NOT_NAMED 1944-06-15 12:00:00 TS 21.1834 71.1881 main 0 0 _________OP___ -1 21.3000 71.2000 TC 30 21.0668 71.1761 1 5 5
1944166N17070 1944 31 NI AS NOT_NAMED 1944-06-15 15:00:00 TS 21.4075 71.2212 main 0 0 _________PO___ -1 21.5150 71.2425 TC 30 21.3000 71.2000 1 4 5
1944166N17070 1944 31 NI AS NOT_NAMED 1944-06-15 18:00:00 TS 21.5983 71.2374 main 0 0 _________OP___ -1 21.7000 71.3000 TC 30 21.4967 71.1748 1 4 0
1944166N17070 1944 31 NI AS NOT_NAMED 1944-06-15 21:00:00 TS 21.7732 71.2324 main 0 0 _________PP___ -1 21.8698 71.2979 TC 30 21.6766 71.1668 1 4 10
1944166N17070 1944 31 NI AS NOT_NAMED 1944-06-16 00:00:00 TS 21.9841 71.3127 main 0 0 _________OP___ -1 22.1000 71.4000 TC 30 21.8682 71.2253 1 6 30
1944166N17070 1944 31 NI AS NOT_NAMED 1944-06-16 03:00:00 TS 22.2925 71.5624 main 0 0 _________PO___ -1 22.4850 71.7247 TC 30 22.1000 71.4000 1 9 41
1944166N17070 1944 31 NI AS NOT_NAMED 1944-06-16 06:00:00 TS 22.6695 71.9555 main 0 0 _________OP___ -1 22.9000 72.2000 TC 30 22.4391 71.7110 1 11 48
1944166N17070 1944 31 NI AS NOT_NAMED 1944-06-16 09:00:00 TS 23.0183 72.4256 main 0 0 _________PP___ -1 23.2223 72.7053 TC 30 22.8144 72.1458 1 12 55
1944166N17070 1944 31 NI AS NOT_NAMED 1944-06-16 12:00:00 TS 23.3412 72.9915 main 0 0 _________OP___ -1 23.5000 73.3000 TC 30 23.1824 72.6829 1 13 61
1944166N17070 1944 31 NI AS NOT_NAMED 1944-06-16 15:00:00 TS 23.6437 73.6349 main 0 0 _________PO___ -1 23.7874 73.9698 TC 30 23.5000 73.3000 1 13 67
1944166N17070 1944 31 NI AS NOT_NAMED 1944-06-16 18:00:00 TS 23.8485 74.2859 main 0 0 _________OP___ -1 24.0000 74.7000 TC 30 23.7348 73.9754 1 13 75
1944166N17070 1944 31 NI AS NOT_NAMED 1944-06-16 21:00:00 TS 23.9741 74.9951 main 0 0 _________PP___ -1 24.0882 75.4478 TC 30 23.8981 74.6932 1 13 81
1944166N17070 1944 31 NI AS NOT_NAMED 1944-06-17 00:00:00 TS 24.0416 75.6929 main 0 0 _________OP___ -1 24.1000 76.2000 TC 30 24.0124 75.4394 1 11 83
1944166N17070 1944 31 NI AS NOT_NAMED 1944-06-17 03:00:00 NR 24.1000 76.2000 main 0 __________O___ -1 TC 24.1000 76.2000 1 9 83

About IBTrACS Database

This database is a web-friendly format of International Best Track Archive for Climate Stewardship (IBTrACS), a global best track data archive curated by NOAA dating back to 1842.

Updated: 2021-11-26